sensor_id;sensor_type;location;lat;lon;timestamp;pressure;altitude;pressure_sealevel;temperature;humidity
80202;BME280;69521;54.454;9.928;2024-02-21T00:01:49;101493.06;;;7.55;99.74
80202;BME280;69521;54.454;9.928;2024-02-21T00:04:15;101485.69;;;7.58;99.57
80202;BME280;69521;54.454;9.928;2024-02-21T00:06:41;101475.81;;;7.59;99.89
80202;BME280;69521;54.454;9.928;2024-02-21T00:09:06;101473.91;;;7.61;99.77
80202;BME280;69521;54.454;9.928;2024-02-21T00:11:31;101461.25;;;7.63;99.37
80202;BME280;69521;54.454;9.928;2024-02-21T00:13:57;101476.69;;;7.59;99.09
80202;BME280;69521;54.454;9.928;2024-02-21T00:16:22;101462.00;;;7.65;98.93
80202;BME280;69521;54.454;9.928;2024-02-21T00:18:48;101467.03;;;7.70;98.97
80202;BME280;69521;54.454;9.928;2024-02-21T00:21:13;101458.03;;;7.71;98.45
80202;BME280;69521;54.454;9.928;2024-02-21T00:23:43;101467.69;;;7.73;98.55
80202;BME280;69521;54.454;9.928;2024-02-21T00:26:11;101453.44;;;7.73;98.99
80202;BME280;69521;54.454;9.928;2024-02-21T00:28:36;101446.47;;;7.70;98.84
80202;BME280;69521;54.454;9.928;2024-02-21T00:31:01;101444.34;;;7.75;98.70
80202;BME280;69521;54.454;9.928;2024-02-21T00:33:27;101430.44;;;7.83;97.79
80202;BME280;69521;54.454;9.928;2024-02-21T00:35:52;101427.22;;;7.90;96.66
80202;BME280;69521;54.454;9.928;2024-02-21T00:38:17;101424.22;;;7.95;96.39
80202;BME280;69521;54.454;9.928;2024-02-21T00:40:43;101419.94;;;7.92;96.96
80202;BME280;69521;54.454;9.928;2024-02-21T00:43:08;101412.63;;;7.94;96.58
80202;BME280;69521;54.454;9.928;2024-02-21T00:45:33;101419.06;;;7.92;96.31
80202;BME280;69521;54.454;9.928;2024-02-21T00:47:58;101405.97;;;8.00;95.97
80202;BME280;69521;54.454;9.928;2024-02-21T00:50:24;101410.69;;;7.96;96.14
80202;BME280;69521;54.454;9.928;2024-02-21T00:52:49;101402.66;;;7.96;96.37
80202;BME280;69521;54.454;9.928;2024-02-21T00:55:14;101409.97;;;7.82;97.85
80202;BME280;69521;54.454;9.928;2024-02-21T00:57:40;101392.59;;;8.00;96.70
80202;BME280;69521;54.454;9.928;2024-02-21T01:00:05;101395.38;;;7.98;96.61
80202;BME280;69521;54.454;9.928;2024-02-21T01:02:32;101397.84;;;8.02;96.36
80202;BME280;69521;54.454;9.928;2024-02-21T01:04:57;101397.09;;;7.99;96.93
80202;BME280;69521;54.454;9.928;2024-02-21T01:07:23;101385.41;;;8.01;96.68
80202;BME280;69521;54.454;9.928;2024-02-21T01:09:48;101374.25;;;8.07;96.32
80202;BME280;69521;54.454;9.928;2024-02-21T01:12:13;101374.25;;;8.07;96.32
80202;BME280;69521;54.454;9.928;2024-02-21T01:14:39;101366.75;;;7.99;97.59
80202;BME280;69521;54.454;9.928;2024-02-21T01:17:04;101374.25;;;8.07;96.69
80202;BME280;69521;54.454;9.928;2024-02-21T01:19:31;101354.84;;;8.03;96.97
80202;BME280;69521;54.454;9.928;2024-02-21T01:21:56;101346.19;;;7.99;97.79
80202;BME280;69521;54.454;9.928;2024-02-21T01:24:22;101350.66;;;8.12;96.63
80202;BME280;69521;54.454;9.928;2024-02-21T01:26:47;101345.50;;;8.09;96.61
80202;BME280;69521;54.454;9.928;2024-02-21T01:29:12;101348.06;;;8.10;96.62
80202;BME280;69521;54.454;9.928;2024-02-21T01:31:38;101328.13;;;8.14;96.97
80202;BME280;69521;54.454;9.928;2024-02-21T01:34:03;101312.72;;;8.05;98.03
80202;BME280;69521;54.454;9.928;2024-02-21T01:36:28;101320.38;;;7.98;98.08
80202;BME280;69521;54.454;9.928;2024-02-21T01:38:53;101308.03;;;7.96;98.72
80202;BME280;69521;54.454;9.928;2024-02-21T01:41:19;101281.25;;;7.96;98.56
80202;BME280;69521;54.454;9.928;2024-02-21T01:43:44;101273.09;;;7.97;98.23
80202;BME280;69521;54.454;9.928;2024-02-21T01:46:10;101283.31;;;7.92;98.74
80202;BME280;69521;54.454;9.928;2024-02-21T01:48:35;101285.03;;;7.93;99.11
80202;BME280;69521;54.454;9.928;2024-02-21T01:51:02;101278.16;;;7.89;98.97
80202;BME280;69521;54.454;9.928;2024-02-21T01:53:38;101275.50;;;7.89;99.04
80202;BME280;69521;54.454;9.928;2024-02-21T01:56:05;101262.84;;;7.91;99.36
80202;BME280;69521;54.454;9.928;2024-02-21T01:58:32;101270.75;;;7.93;98.95
80202;BME280;69521;54.454;9.928;2024-02-21T02:00:59;101263.69;;;7.92;98.96
80202;BME280;69521;54.454;9.928;2024-02-21T02:03:24;101265.94;;;7.98;98.88
80202;BME280;69521;54.454;9.928;2024-02-21T02:05:50;101269.47;;;7.98;98.57
80202;BME280;69521;54.454;9.928;2024-02-21T02:08:17;101273.09;;;7.97;99.15
80202;BME280;69521;54.454;9.928;2024-02-21T02:10:43;101265.94;;;7.98;99.05
80202;BME280;69521;54.454;9.928;2024-02-21T02:13:09;101262.38;;;7.97;99.13
80202;BME280;69521;54.454;9.928;2024-02-21T02:15:44;101257.53;;;8.03;98.70
80202;BME280;69521;54.454;9.928;2024-02-21T02:18:10;101259.72;;;7.97;99.53
80202;BME280;69521;54.454;9.928;2024-02-21T02:20:36;101259.66;;;7.86;100.00
80202;BME280;69521;54.454;9.928;2024-02-21T02:23:09;101257.72;;;7.88;100.00
80202;BME280;69521;54.454;9.928;2024-02-21T02:25:36;101248.59;;;7.91;100.00
80202;BME280;69521;54.454;9.928;2024-02-21T02:28:03;101237.72;;;7.81;100.00
80202;BME280;69521;54.454;9.928;2024-02-21T02:30:29;101246.59;;;7.82;100.00
80202;BME280;69521;54.454;9.928;2024-02-21T02:32:56;101222.59;;;7.80;100.00
80202;BME280;69521;54.454;9.928;2024-02-21T02:35:22;101223.34;;;7.82;100.00
80202;BME280;69521;54.454;9.928;2024-02-21T02:37:48;101227.72;;;7.83;100.00
80202;BME280;69521;54.454;9.928;2024-02-21T02:40:14;101232.88;;;7.86;100.00
80202;BME280;69521;54.454;9.928;2024-02-21T02:42:40;101225.56;;;7.88;100.00
80202;BME280;69521;54.454;9.928;2024-02-21T02:45:05;101231.38;;;7.82;100.00
80202;BME280;69521;54.454;9.928;2024-02-21T02:47:31;101235.03;;;7.81;100.00
80202;BME280;69521;54.454;9.928;2024-02-21T02:49:56;101237.59;;;7.83;100.00
80202;BME280;69521;54.454;9.928;2024-02-21T02:52:21;101236.06;;;7.79;100.00
80202;BME280;69521;54.454;9.928;2024-02-21T02:54:47;101235.34;;;7.77;100.00
80202;BME280;69521;54.454;9.928;2024-02-21T02:57:17;101230.22;;;7.74;100.00
80202;BME280;69521;54.454;9.928;2024-02-21T02:59:42;101227.06;;;7.80;100.00
80202;BME280;69521;54.454;9.928;2024-02-21T03:02:07;101233.50;;;7.77;100.00
80202;BME280;69521;54.454;9.928;2024-02-21T03:04:33;101242.94;;;7.83;100.00
80202;BME280;69521;54.454;9.928;2024-02-21T03:06:58;101238.88;;;7.77;100.00
80202;BME280;69521;54.454;9.928;2024-02-21T03:09:23;101233.50;;;7.77;100.00
80202;BME280;69521;54.454;9.928;2024-02-21T03:11:48;101244.09;;;7.79;100.00
80202;BME280;69521;54.454;9.928;2024-02-21T03:14:14;101242.50;;;7.76;100.00
80202;BME280;69521;54.454;9.928;2024-02-21T03:16:39;101246.16;;;7.75;100.00
80202;BME280;69521;54.454;9.928;2024-02-21T03:19:04;101247.69;;;7.66;100.00
80202;BME280;69521;54.454;9.928;2024-02-21T03:21:29;101250.69;;;7.62;100.00
80202;BME280;69521;54.454;9.928;2024-02-21T03:23:55;101249.50;;;7.66;100.00
80202;BME280;69521;54.454;9.928;2024-02-21T03:26:20;101252.53;;;7.61;100.00
80202;BME280;69521;54.454;9.928;2024-02-21T03:28:46;101252.97;;;7.55;99.56
80202;BME280;69521;54.454;9.928;2024-02-21T03:31:11;101252.78;;;7.46;100.00
80202;BME280;69521;54.454;9.928;2024-02-21T03:33:39;101233.50;;;7.41;100.00
80202;BME280;69521;54.454;9.928;2024-02-21T03:36:04;101240.47;;;7.43;99.29
80202;BME280;69521;54.454;9.928;2024-02-21T03:38:30;101240.28;;;7.33;99.90
80202;BME280;69521;54.454;9.928;2024-02-21T03:40:55;101236.84;;;7.31;100.00
80202;BME280;69521;54.454;9.928;2024-02-21T03:43:20;101252.38;;;7.26;100.00
80202;BME280;69521;54.454;9.928;2024-02-21T03:45:45;101254.31;;;7.24;99.98
80202;BME280;69521;54.454;9.928;2024-02-21T03:48:11;101257.22;;;7.21;100.00
80202;BME280;69521;54.454;9.928;2024-02-21T03:50:36;101249.06;;;7.23;100.00
80202;BME280;69521;54.454;9.928;2024-02-21T03:53:01;101260.84;;;7.20;100.00
80202;BME280;69521;54.454;9.928;2024-02-21T03:55:27;101251.97;;;7.20;99.87
80202;BME280;69521;54.454;9.928;2024-02-21T03:57:52;101255.50;;;7.20;100.00
80202;BME280;69521;54.454;9.928;2024-02-21T04:00:18;101254.97;;;7.15;99.96
80202;BME280;69521;54.454;9.928;2024-02-21T04:02:43;101261.28;;;7.14;100.00
80202;BME280;69521;54.454;9.928;2024-02-21T04:05:08;101258.63;;;7.01;100.00
80202;BME280;69521;54.454;9.928;2024-02-21T04:07:37;101265.25;;;6.96;100.00
80202;BME280;69521;54.454;9.928;2024-02-21T04:10:02;101271.34;;;6.98;99.86
80202;BME280;69521;54.454;9.928;2024-02-21T04:12:28;101270.16;;;7.02;99.92
80202;BME280;69521;54.454;9.928;2024-02-21T04:14:53;101276.69;;;6.98;99.95
80202;BME280;69521;54.454;9.928;2024-02-21T04:17:18;101274.22;;;6.95;99.99
80202;BME280;69521;54.454;9.928;2024-02-21T04:19:44;101279.13;;;6.88;100.00
80202;BME280;69521;54.454;9.928;2024-02-21T04:22:09;101265.53;;;6.91;99.37
80202;BME280;69521;54.454;9.928;2024-02-21T04:24:34;101274.13;;;6.96;99.49
80202;BME280;69521;54.454;9.928;2024-02-21T04:26:59;101282.88;;;6.86;99.30
80202;BME280;69521;54.454;9.928;2024-02-21T04:29:25;101281.91;;;6.87;99.89
80202;BME280;69521;54.454;9.928;2024-02-21T04:31:50;101279.44;;;6.84;98.65
80202;BME280;69521;54.454;9.928;2024-02-21T04:34:15;101279.44;;;6.84;99.19
80202;BME280;69521;54.454;9.928;2024-02-21T04:36:41;101277.50;;;6.86;97.84
80202;BME280;69521;54.454;9.928;2024-02-21T04:39:06;101266.59;;;6.89;97.58
80202;BME280;69521;54.454;9.928;2024-02-21T04:41:31;101277.50;;;6.86;97.89
80202;BME280;69521;54.454;9.928;2024-02-21T04:43:57;101267.03;;;6.83;98.60
80202;BME280;69521;54.454;9.928;2024-02-21T04:46:22;101265.53;;;6.79;97.49
80202;BME280;69521;54.454;9.928;2024-02-21T04:48:47;101262.66;;;6.82;97.42
80202;BME280;69521;54.454;9.928;2024-02-21T04:51:13;101256.00;;;6.75;97.76
80202;BME280;69521;54.454;9.928;2024-02-21T04:53:38;101264.13;;;6.73;97.36
80202;BME280;69521;54.454;9.928;2024-02-21T04:56:04;101261.47;;;6.73;97.83
80202;BME280;69521;54.454;9.928;2024-02-21T04:58:29;101263.06;;;6.76;97.18
80202;BME280;69521;54.454;9.928;2024-02-21T05:00:55;101268.84;;;6.69;98.39
80202;BME280;69521;54.454;9.928;2024-02-21T05:03:20;101267.00;;;6.70;97.80
80202;BME280;69521;54.454;9.928;2024-02-21T05:05:46;101271.72;;;6.79;98.05
80202;BME280;69521;54.454;9.928;2024-02-21T05:08:12;101265.31;;;6.82;98.27
80202;BME280;69521;54.454;9.928;2024-02-21T05:10:37;101261.25;;;6.89;97.54
80202;BME280;69521;54.454;9.928;2024-02-21T05:13:03;101259.75;;;6.85;97.41
80202;BME280;69521;54.454;9.928;2024-02-21T05:15:28;101254.94;;;6.77;97.89
80202;BME280;69521;54.454;9.928;2024-02-21T05:17:54;101266.59;;;6.89;97.51
80202;BME280;69521;54.454;9.928;2024-02-21T05:20:19;101260.50;;;6.87;96.55
80202;BME280;69521;54.454;9.928;2024-02-21T05:22:44;101268.53;;;6.87;96.96
80202;BME280;69521;54.454;9.928;2024-02-21T05:25:10;101254.19;;;6.88;97.53
80202;BME280;69521;54.454;9.928;2024-02-21T05:27:35;101261.16;;;6.90;96.85
80202;BME280;69521;54.454;9.928;2024-02-21T05:30:02;101273.13;;;6.85;95.90
80202;BME280;69521;54.454;9.928;2024-02-21T05:32:27;101258.91;;;6.84;95.76
80202;BME280;69521;54.454;9.928;2024-02-21T05:34:53;101255.69;;;6.79;95.84
80202;BME280;69521;54.454;9.928;2024-02-21T05:37:18;101251.94;;;6.69;95.59
80202;BME280;69521;54.454;9.928;2024-02-21T05:39:43;101252.78;;;6.69;95.53
80202;BME280;69521;54.454;9.928;2024-02-21T05:42:09;101254.06;;;6.64;95.63
80202;BME280;69521;54.454;9.928;2024-02-21T05:44:34;101254.38;;;6.47;95.92
80202;BME280;69521;54.454;9.928;2024-02-21T05:46:59;101249.00;;;6.34;96.40
80202;BME280;69521;54.454;9.928;2024-02-21T05:49:25;101237.75;;;6.29;96.50
80202;BME280;69521;54.454;9.928;2024-02-21T05:51:50;101254.34;;;6.34;96.50
80202;BME280;69521;54.454;9.928;2024-02-21T05:54:15;101256.91;;;6.35;96.46
80202;BME280;69521;54.454;9.928;2024-02-21T05:56:44;101260.44;;;6.36;96.05
80202;BME280;69521;54.454;9.928;2024-02-21T05:59:10;101256.25;;;6.32;96.39
80202;BME280;69521;54.454;9.928;2024-02-21T06:01:35;101257.84;;;6.22;96.07
80202;BME280;69521;54.454;9.928;2024-02-21T06:04:00;101251.94;;;6.17;96.14
80202;BME280;69521;54.454;9.928;2024-02-21T06:06:26;101255.78;;;6.13;96.18
80202;BME280;69521;54.454;9.928;2024-02-21T06:08:51;101258.47;;;5.98;97.05
80202;BME280;69521;54.454;9.928;2024-02-21T06:11:16;101262.94;;;5.98;96.91
80202;BME280;69521;54.454;9.928;2024-02-21T06:13:42;101286.69;;;6.02;96.44
80202;BME280;69521;54.454;9.928;2024-02-21T06:16:07;101289.34;;;6.17;95.90
80202;BME280;69521;54.454;9.928;2024-02-21T06:18:35;101301.38;;;6.10;96.07
80202;BME280;69521;54.454;9.928;2024-02-21T06:21:00;101302.41;;;6.21;95.88
80202;BME280;69521;54.454;9.928;2024-02-21T06:23:26;101296.28;;;6.19;96.30
80202;BME280;69521;54.454;9.928;2024-02-21T06:25:51;101299.16;;;6.16;95.87
80202;BME280;69521;54.454;9.928;2024-02-21T06:28:17;101302.69;;;6.17;96.39
80202;BME280;69521;54.454;9.928;2024-02-21T06:30:42;101296.41;;;6.18;95.95
80202;BME280;69521;54.454;9.928;2024-02-21T06:33:07;101292.56;;;6.22;95.91
80202;BME280;69521;54.454;9.928;2024-02-21T06:35:33;101290.94;;;6.19;95.80
80202;BME280;69521;54.454;9.928;2024-02-21T06:37:59;101281.56;;;6.26;95.18
80202;BME280;69521;54.454;9.928;2024-02-21T06:40:24;101276.13;;;6.28;95.16
80202;BME280;69521;54.454;9.928;2024-02-21T06:42:50;101278.69;;;6.29;95.55
80202;BME280;69521;54.454;9.928;2024-02-21T06:45:16;101274.31;;;6.28;94.01
80202;BME280;69521;54.454;9.928;2024-02-21T06:47:41;101280.72;;;6.26;93.35
80202;BME280;69521;54.454;9.928;2024-02-21T06:50:07;101294.19;;;6.24;93.42
80202;BME280;69521;54.454;9.928;2024-02-21T06:52:32;101292.63;;;6.07;94.44
80202;BME280;69521;54.454;9.928;2024-02-21T06:54:57;101288.59;;;6.00;95.63
80202;BME280;69521;54.454;9.928;2024-02-21T06:57:23;101280.97;;;6.09;94.95
80202;BME280;69521;54.454;9.928;2024-02-21T06:59:48;101268.38;;;6.11;95.92
80202;BME280;69521;54.454;9.928;2024-02-21T07:02:13;101274.81;;;6.21;95.67
80202;BME280;69521;54.454;9.928;2024-02-21T07:04:39;101283.69;;;6.21;95.39
80202;BME280;69521;54.454;9.928;2024-02-21T07:07:04;101293.53;;;6.21;95.01
80202;BME280;69521;54.454;9.928;2024-02-21T07:09:30;101277.09;;;6.27;94.09
80202;BME280;69521;54.454;9.928;2024-02-21T07:11:59;101273.75;;;6.23;93.66
80202;BME280;69521;54.454;9.928;2024-02-21T07:14:25;101271.94;;;6.24;94.31
80202;BME280;69521;54.454;9.928;2024-02-21T07:16:51;101260.50;;;6.22;93.71
80202;BME280;69521;54.454;9.928;2024-02-21T07:19:16;101252.09;;;6.28;93.18
80202;BME280;69521;54.454;9.928;2024-02-21T07:21:41;101258.78;;;6.21;95.02
80202;BME280;69521;54.454;9.928;2024-02-21T07:24:07;101254.97;;;6.25;93.32
80202;BME280;69521;54.454;9.928;2024-02-21T07:26:33;101266.47;;;5.98;93.72
80202;BME280;69521;54.454;9.928;2024-02-21T07:28:58;101269.72;;;6.03;94.70
80202;BME280;69521;54.454;9.928;2024-02-21T07:31:24;101274.50;;;5.98;94.08
80202;BME280;69521;54.454;9.928;2024-02-21T07:33:49;101281.75;;;5.96;94.59
80202;BME280;69521;54.454;9.928;2024-02-21T07:36:15;101284.59;;;6.07;92.94
80202;BME280;69521;54.454;9.928;2024-02-21T07:38:40;101292.88;;;6.17;93.47
80202;BME280;69521;54.454;9.928;2024-02-21T07:41:06;101293.09;;;6.00;93.96
80202;BME280;69521;54.454;9.928;2024-02-21T07:43:32;101283.81;;;6.05;93.25
80202;BME280;69521;54.454;9.928;2024-02-21T07:45:57;101289.94;;;6.07;92.92
80202;BME280;69521;54.454;9.928;2024-02-21T07:48:22;101288.19;;;6.06;93.24
80202;BME280;69521;54.454;9.928;2024-02-21T07:50:51;101290.97;;;6.05;93.30
80202;BME280;69521;54.454;9.928;2024-02-21T07:53:17;101285.53;;;6.06;93.38
80202;BME280;69521;54.454;9.928;2024-02-21T07:55:42;101287.97;;;6.24;92.58
80202;BME280;69521;54.454;9.928;2024-02-21T07:58:07;101293.81;;;6.16;93.09
80202;BME280;69521;54.454;9.928;2024-02-21T08:00:33;101291.47;;;6.12;92.76
80202;BME280;69521;54.454;9.928;2024-02-21T08:02:58;101284.19;;;6.14;93.16
80202;BME280;69521;54.454;9.928;2024-02-21T08:05:24;101285.75;;;6.30;92.47
80202;BME280;69521;54.454;9.928;2024-02-21T08:07:49;101283.94;;;6.31;93.52
80202;BME280;69521;54.454;9.928;2024-02-21T08:10:15;101280.00;;;6.36;93.66
80202;BME280;69521;54.454;9.928;2024-02-21T08:12:40;101280.75;;;6.38;92.31
80202;BME280;69521;54.454;9.928;2024-02-21T08:15:06;101291.34;;;6.40;91.99
80202;BME280;69521;54.454;9.928;2024-02-21T08:17:33;101297.34;;;6.44;92.02
80202;BME280;69521;54.454;9.928;2024-02-21T08:19:59;101290.75;;;6.62;91.95
80202;BME280;69521;54.454;9.928;2024-02-21T08:22:24;101290.75;;;6.62;91.59
80202;BME280;69521;54.454;9.928;2024-02-21T08:24:50;101291.25;;;6.54;92.03
80202;BME280;69521;54.454;9.928;2024-02-21T08:27:15;101295.66;;;6.55;92.55
80202;BME280;69521;54.454;9.928;2024-02-21T08:29:40;101279.19;;;6.61;92.39
80202;BME280;69521;54.454;9.928;2024-02-21T08:32:06;101279.44;;;6.71;91.95
80202;BME280;69521;54.454;9.928;2024-02-21T08:34:31;101270.66;;;6.82;91.29
80202;BME280;69521;54.454;9.928;2024-02-21T08:36:59;101274.84;;;6.86;90.00
80202;BME280;69521;54.454;9.928;2024-02-21T08:39:24;101285.09;;;6.92;90.96
80202;BME280;69521;54.454;9.928;2024-02-21T08:41:49;101280.75;;;7.03;89.71
80202;BME280;69521;54.454;9.928;2024-02-21T08:44:16;101268.56;;;7.12;90.33
80202;BME280;69521;54.454;9.928;2024-02-21T08:46:41;101275.41;;;7.29;89.13
80202;BME280;69521;54.454;9.928;2024-02-21T08:49:06;101264.50;;;7.07;88.91
80202;BME280;69521;54.454;9.928;2024-02-21T08:51:32;101272.94;;;7.13;87.89
80202;BME280;69521;54.454;9.928;2024-02-21T08:53:58;101276.78;;;7.22;88.35
80202;BME280;69521;54.454;9.928;2024-02-21T08:56:23;101270.69;;;7.32;90.25
80202;BME280;69521;54.454;9.928;2024-02-21T08:58:49;101269.06;;;7.43;88.65
80202;BME280;69521;54.454;9.928;2024-02-21T09:01:15;101272.25;;;7.48;86.78
80202;BME280;69521;54.454;9.928;2024-02-21T09:03:40;101274.09;;;7.34;87.29
80202;BME280;69521;54.454;9.928;2024-02-21T09:06:06;101272.16;;;7.49;88.49
80202;BME280;69521;54.454;9.928;2024-02-21T09:08:32;101269.22;;;7.65;86.22
80202;BME280;69521;54.454;9.928;2024-02-21T09:10:59;101268.66;;;7.73;84.10
80202;BME280;69521;54.454;9.928;2024-02-21T09:13:25;101267.28;;;8.04;84.67
80202;BME280;69521;54.454;9.928;2024-02-21T09:15:50;101261.81;;;8.99;79.62
80202;BME280;69521;54.454;9.928;2024-02-21T09:18:16;101263.47;;;8.43;82.51
80202;BME280;69521;54.454;9.928;2024-02-21T09:20:42;101262.38;;;8.69;80.76
80202;BME280;69521;54.454;9.928;2024-02-21T09:23:07;101271.50;;;9.69;75.88
80202;BME280;69521;54.454;9.928;2024-02-21T09:25:32;101275.28;;;9.55;77.90
80202;BME280;69521;54.454;9.928;2024-02-21T09:27:58;101276.47;;;9.29;74.84
80202;BME280;69521;54.454;9.928;2024-02-21T09:30:23;101269.50;;;8.92;78.68
80202;BME280;69521;54.454;9.928;2024-02-21T09:32:49;101261.03;;;9.98;74.37
80202;BME280;69521;54.454;9.928;2024-02-21T09:35:14;101268.41;;;9.06;79.15
80202;BME280;69521;54.454;9.928;2024-02-21T09:37:40;101271.00;;;10.18;77.13
80202;BME280;69521;54.454;9.928;2024-02-21T09:40:06;101260.03;;;10.21;74.08
80202;BME280;69521;54.454;9.928;2024-02-21T09:42:40;101267.47;;;9.63;74.59
80202;BME280;69521;54.454;9.928;2024-02-21T09:45:28;101258.34;;;9.98;73.70
80202;BME280;69521;54.454;9.928;2024-02-21T09:48:15;101255.66;;;10.52;72.84
80202;BME280;69521;54.454;9.928;2024-02-21T09:50:45;101265.88;;;10.15;72.03
80202;BME280;69521;54.454;9.928;2024-02-21T09:53:12;101256.56;;;10.30;73.29
80202;BME280;69521;54.454;9.928;2024-02-21T09:55:39;101246.91;;;10.60;70.08
80202;BME280;69521;54.454;9.928;2024-02-21T09:58:07;101246.97;;;9.62;73.66
80202;BME280;69521;54.454;9.928;2024-02-21T10:00:32;101245.13;;;9.07;77.79
80202;BME280;69521;54.454;9.928;2024-02-21T10:02:58;101250.06;;;9.89;72.68
80202;BME280;69521;54.454;9.928;2024-02-21T10:05:24;101252.31;;;9.06;75.44
80202;BME280;69521;54.454;9.928;2024-02-21T10:07:51;101246.50;;;10.00;74.01
80202;BME280;69521;54.454;9.928;2024-02-21T10:10:16;101242.97;;;10.00;73.55
80202;BME280;69521;54.454;9.928;2024-02-21T10:12:52;101244.38;;;11.30;68.59
80202;BME280;69521;54.454;9.928;2024-02-21T10:15:24;101236.38;;;11.99;67.75
80202;BME280;69521;54.454;9.928;2024-02-21T10:17:59;101231.16;;;12.17;64.97
80202;BME280;69521;54.454;9.928;2024-02-21T10:20:25;101227.06;;;12.42;62.34
80202;BME280;69521;54.454;9.928;2024-02-21T10:23:00;101227.75;;;12.34;63.43
80202;BME280;69521;54.454;9.928;2024-02-21T10:25:27;101228.31;;;12.67;62.21
80202;BME280;69521;54.454;9.928;2024-02-21T10:27:52;101238.47;;;13.02;61.66
80202;BME280;69521;54.454;9.928;2024-02-21T10:30:17;101222.38;;;12.25;63.35
80202;BME280;69521;54.454;9.928;2024-02-21T10:32:53;101237.59;;;13.21;60.13
80202;BME280;69521;54.454;9.928;2024-02-21T10:35:29;101238.09;;;11.60;66.24
80202;BME280;69521;54.454;9.928;2024-02-21T10:37:58;101239.75;;;10.91;69.20
80202;BME280;69521;54.454;9.928;2024-02-21T10:40:28;101250.00;;;10.76;70.63
80202;BME280;69521;54.454;9.928;2024-02-21T10:43:02;101242.41;;;10.60;73.90
80202;BME280;69521;54.454;9.928;2024-02-21T10:45:34;101233.16;;;12.34;72.06
80202;BME280;69521;54.454;9.928;2024-02-21T10:48:14;101226.31;;;12.69;64.44
80202;BME280;69521;54.454;9.928;2024-02-21T10:53:44;101226.09;;;13.19;64.14
80202;BME280;69521;54.454;9.928;2024-02-21T10:58:49;101225.72;;;11.48;67.50
80202;BME280;69521;54.454;9.928;2024-02-21T11:01:14;101215.03;;;11.77;69.00
80202;BME280;69521;54.454;9.928;2024-02-21T11:03:42;101207.78;;;11.28;69.73
80202;BME280;69521;54.454;9.928;2024-02-21T11:06:10;101201.13;;;11.01;69.73
80202;BME280;69521;54.454;9.928;2024-02-21T11:08:36;101203.03;;;11.41;69.28
80202;BME280;69521;54.454;9.928;2024-02-21T11:11:02;101200.00;;;10.73;71.67
80202;BME280;69521;54.454;9.928;2024-02-21T11:13:40;101192.16;;;11.22;71.14
80202;BME280;69521;54.454;9.928;2024-02-21T11:16:07;101175.53;;;12.16;68.13
80202;BME280;69521;54.454;9.928;2024-02-21T11:18:34;101185.28;;;11.88;66.58
80202;BME280;69521;54.454;9.928;2024-02-21T11:20:59;101189.72;;;11.18;69.84
80202;BME280;69521;54.454;9.928;2024-02-21T11:23:26;101180.97;;;11.26;69.41
80202;BME280;69521;54.454;9.928;2024-02-21T11:25:51;101165.91;;;11.54;69.85
80202;BME280;69521;54.454;9.928;2024-02-21T11:28:25;101168.28;;;11.38;69.16
80202;BME280;69521;54.454;9.928;2024-02-21T11:30:50;101173.75;;;11.27;69.93
80202;BME280;69521;54.454;9.928;2024-02-21T11:33:16;101168.69;;;11.03;71.21
80202;BME280;69521;54.454;9.928;2024-02-21T11:35:42;101163.75;;;10.77;72.21
80202;BME280;69521;54.454;9.928;2024-02-21T11:38:08;101158.56;;;11.26;71.52
80202;BME280;69521;54.454;9.928;2024-02-21T11:40:35;101152.59;;;11.12;70.76
80202;BME280;69521;54.454;9.928;2024-02-21T11:43:00;101159.59;;;10.94;70.74
80202;BME280;69521;54.454;9.928;2024-02-21T11:45:26;101158.41;;;10.57;72.46
80202;BME280;69521;54.454;9.928;2024-02-21T11:47:52;101155.84;;;10.34;73.81
80202;BME280;69521;54.454;9.928;2024-02-21T11:50:17;101142.13;;;10.37;73.57
80202;BME280;69521;54.454;9.928;2024-02-21T11:52:43;101142.13;;;10.37;74.86
80202;BME280;69521;54.454;9.928;2024-02-21T11:55:08;101138.31;;;10.40;75.58
80202;BME280;69521;54.454;9.928;2024-02-21T11:57:34;101138.44;;;10.38;75.66
80202;BME280;69521;54.454;9.928;2024-02-21T12:00:22;101124.63;;;10.22;76.55
80202;BME280;69521;54.454;9.928;2024-02-21T12:02:49;101120.72;;;10.15;77.27
80202;BME280;69521;54.454;9.928;2024-02-21T12:05:15;101118.19;;;10.34;76.66
80202;BME280;69521;54.454;9.928;2024-02-21T12:07:41;101117.16;;;10.46;76.91
80202;BME280;69521;54.454;9.928;2024-02-21T12:10:10;101114.84;;;10.21;76.61
80202;BME280;69521;54.454;9.928;2024-02-21T12:12:39;101112.84;;;10.02;78.76
80202;BME280;69521;54.454;9.928;2024-02-21T12:15:06;101105.31;;;9.96;78.81
80202;BME280;69521;54.454;9.928;2024-02-21T12:17:39;101104.25;;;9.87;79.96
80202;BME280;69521;54.454;9.928;2024-02-21T12:20:05;101103.78;;;9.82;81.12
80202;BME280;69521;54.454;9.928;2024-02-21T12:22:35;101101.63;;;9.76;82.11
80202;BME280;69521;54.454;9.928;2024-02-21T12:25:03;101092.16;;;9.61;82.04
80202;BME280;69521;54.454;9.928;2024-02-21T12:27:29;101088.22;;;9.65;82.54
80202;BME280;69521;54.454;9.928;2024-02-21T12:29:55;101082.72;;;9.67;82.69
80202;BME280;69521;54.454;9.928;2024-02-21T12:32:20;101089.41;;;9.72;82.84
80202;BME280;69521;54.454;9.928;2024-02-21T12:34:46;101071.34;;;9.74;82.52
80202;BME280;69521;54.454;9.928;2024-02-21T12:37:11;101075.25;;;9.70;82.21
80202;BME280;69521;54.454;9.928;2024-02-21T12:39:41;101074.88;;;9.75;82.56
80202;BME280;69521;54.454;9.928;2024-02-21T12:42:06;101072.19;;;9.75;82.50
80202;BME280;69521;54.454;9.928;2024-02-21T12:44:31;101065.75;;;9.66;82.53
80202;BME280;69521;54.454;9.928;2024-02-21T12:46:57;101054.28;;;9.64;83.17
80202;BME280;69521;54.454;9.928;2024-02-21T12:49:22;101067.53;;;9.56;84.17
80202;BME280;69521;54.454;9.928;2024-02-21T12:51:49;101066.53;;;9.46;85.95
80202;BME280;69521;54.454;9.928;2024-02-21T12:54:15;101052.56;;;9.31;87.17
80202;BME280;69521;54.454;9.928;2024-02-21T12:56:40;101060.56;;;9.10;89.58
80202;BME280;69521;54.454;9.928;2024-02-21T12:59:06;101053.22;;;9.12;90.62